Terminal Aerodrome Forecast
Issued by NWS

Home | Current Version | Previous Version | Text Only | Print | Product List | Glossary On
Versions: 1 2 3 4 5 6 7 8 9 10 11 12 13 14 15 16 17 18
806
FTUS44 KBMX 061720
TAFTOI
TAF
KTOI 061720Z 0618/0718 27010G17KT P6SM SCT025 OVC035
     FM070000 33003KT P6SM OVC006
     FM071200 32003KT P6SM OVC003=

USA.gov is the U.S. government's official web portal to all federal, state and local government web resources and services.